首页
METAR-TAF:

METAR-TAF

机场 :

Plantation Airpark

Sylvania, 喬治亞, 美国

纬度: 32-38-43N, 经度: 081-35-47W, 海拔: 57米

当前天气观测

该预报发布于29分钟前的09:15 UTC
风速7节,风向东北
温度 7°C
湿度 100%
气压 1020 hPa
能見度: 11.3公里
多云层高于500英尺
多云层高于2100英尺
阴天层高于3400英尺

METAR: KJYL 150915Z AUTO 05007KT 7SM RA BKN005 BKN021 OVC034 07/07 A3011 RMK AO2 T00710065

时间: 04:44 (09:44 UTC)


TAF: 丢失

超过4000个机场的气象观测和天气预报(METAR&TAF报告)。

可查询的气象台以黄色和红色小点在地图上表示。

将鼠标移到小点上方,可查看气象台名称。

然后点击查看天气观测和预报。

如需切换地图:点击带黑十字的绿色按钮放大地图;点击带横线的绿色按钮缩小地图;或者点击绿色箭头查看邻近地区的地图。


METAR-TAF: